Time;durP1;ratioP1;P1;durP2;ratioP2;P2;SDS_P1;SDS_P2;PMS_P1;PMS_P2;Temp;Humidity;BMP_temperature;BMP_pressure;BME280_temperature;BME280_humidity;BME280_pressure;Samples;Min_cycle;Max_cycle;Signal;HPM_P1;HPM_P2
2022/12/08 00:02:21;;;;;;;19.38;3.90;;;;;;;;;;5054524;28;20029;-45
2022/12/08 00:10:18;;;;;;;15.35;3.67;;;;;;;;;;5054380;28;20075;-45
2022/12/08 00:12:45;;;;;;;17.02;3.47;;;;;;;;;;5051914;28;20439;-45
2022/12/08 00:15:12;;;;;;;17.83;4.65;;;;;;;;;;5054379;28;20087;-44
2022/12/08 00:17:39;;;;;;;19.15;3.80;;;;;;;;;;5054165;28;20044;-46
2022/12/08 00:20:06;;;;;;;11.75;3.72;;;;;;;;;;5054318;28;20104;-45
2022/12/08 00:22:33;;;;;;;18.95;4.22;;;;;;;;;;5054154;28;20025;-45
2022/12/08 00:25:00;;;;;;;15.40;3.97;;;;;;;;;;5054147;28;20025;-45
2022/12/08 00:27:27;;;;;;;12.63;3.60;;;;;;;;;;5054344;28;20037;-45
2022/12/08 00:29:54;;;;;;;15.15;3.40;;;;;;;;;;5054122;28;20024;-44
2022/12/08 00:32:21;;;;;;;13.43;3.63;;;;;;;;;;5053820;28;20025;-45
2022/12/08 00:34:48;;;;;;;21.48;4.32;;;;;;;;;;5053979;28;20119;-45
2022/12/08 00:37:15;;;;;;;13.90;3.25;;;;;;;;;;5053896;28;20832;-48
2022/12/08 00:39:41;;;;;;;13.68;3.60;;;;;;;;;;5053927;28;20025;-44
2022/12/08 00:42:12;;;;;;;17.17;3.97;;;;;;;;;;5053787;28;20033;-45
2022/12/08 00:44:43;;;;;;;11.70;3.40;;;;;;;;;;5053805;28;20021;-46
2022/12/08 00:47:10;;;;;;;9.75;3.17;;;;;;;;;;5053832;28;20025;-45
2022/12/08 00:49:37;;;;;;;18.08;4.25;;;;;;;;;;5053715;28;20024;-45
2022/12/08 00:52:04;;;;;;;10.93;3.20;;;;;;;;;;5053594;28;20064;-44
2022/12/08 00:54:31;;;;;;;12.65;3.20;;;;;;;;;;5053619;28;20506;-45
2022/12/08 00:56:58;;;;;;;11.70;3.50;;;;;;;;;;5053560;28;20025;-45
2022/12/08 00:59:25;;;;;;;14.02;3.63;;;;;;;;;;5053557;28;20047;-46
2022/12/08 01:01:52;;;;;;;13.50;3.83;;;;;;;;;;5053471;28;20025;-44
2022/12/08 01:04:19;;;;;;;9.75;3.22;;;;;;;;;;5053349;28;20032;-44
2022/12/08 01:06:46;;;;;;;11.10;3.20;;;;;;;;;;5053365;28;20024;-46
2022/12/08 01:09:14;;;;;;;10.77;3.38;;;;;;;;;;5053286;28;20024;-44
2022/12/08 01:11:43;;;;;;;11.30;3.03;;;;;;;;;;5053254;28;20080;-45
2022/12/08 01:14:10;;;;;;;14.27;3.60;;;;;;;;;;5052989;28;20406;-45
2022/12/08 01:16:37;;;;;;;11.55;3.28;;;;;;;;;;5053025;28;20036;-47
2022/12/08 01:19:04;;;;;;;8.57;3.40;;;;;;;;;;5053146;28;20082;-45
2022/12/08 01:21:31;;;;;;;13.30;3.42;;;;;;;;;;5053110;28;20052;-45
2022/12/08 01:24:00;;;;;;;12.38;3.15;;;;;;;;;;5052883;28;20478;-45
2022/12/08 01:26:27;;;;;;;11.18;3.35;;;;;;;;;;5052923;28;20029;-45
2022/12/08 01:28:54;;;;;;;11.70;3.22;;;;;;;;;;5052920;28;20379;-45
2022/12/08 01:31:22;;;;;;;9.75;2.75;;;;;;;;;;5052851;28;20091;-46
2022/12/08 01:33:49;;;;;;;11.73;3.03;;;;;;;;;;5052216;28;20430;-45
2022/12/08 01:36:21;;;;;;;9.25;2.97;;;;;;;;;;5052817;28;20053;-46
2022/12/08 01:38:48;;;;;;;11.90;3.13;;;;;;;;;;5052460;28;20065;-44
2022/12/08 01:41:16;;;;;;;8.80;3.10;;;;;;;;;;5052736;28;20032;-44
2022/12/08 01:43:45;;;;;;;7.00;2.72;;;;;;;;;;5052576;28;20017;-45
2022/12/08 01:46:12;;;;;;;8.93;2.53;;;;;;;;;;5052711;28;20029;-47
2022/12/08 01:48:39;;;;;;;9.45;2.83;;;;;;;;;;5052336;28;20030;-44
2022/12/08 01:51:07;;;;;;;9.32;2.90;;;;;;;;;;5052400;28;20028;-45
2022/12/08 01:53:34;;;;;;;10.00;3.15;;;;;;;;;;5052524;28;20159;-45
2022/12/08 01:56:07;;;;;;;10.32;2.72;;;;;;;;;;5052495;28;20029;-45
2022/12/08 01:58:39;;;;;;;9.00;2.83;;;;;;;;;;5052469;28;20505;-44
2022/12/08 02:01:07;;;;;;;10.48;2.97;;;;;;;;;;5052348;28;20025;-46
2022/12/08 02:03:40;;;;;;;6.07;2.25;;;;;;;;;;5052241;28;20031;-45
2022/12/08 02:06:08;;;;;;;11.95;3.20;;;;;;;;;;5052310;28;20562;-45
2022/12/08 02:08:36;;;;;;;8.45;2.90;;;;;;;;;;5052330;28;20505;-45
2022/12/08 02:11:05;;;;;;;7.15;2.92;;;;;;;;;;5052221;28;20063;-45
2022/12/08 02:13:32;;;;;;;6.60;2.53;;;;;;;;;;5052067;28;20025;-45
2022/12/08 02:16:03;;;;;;;7.57;2.80;;;;;;;;;;5052186;28;20106;-44
2022/12/08 02:18:30;;;;;;;8.23;2.97;;;;;;;;;;5051991;28;20045;-45
2022/12/08 02:21:03;;;;;;;8.65;2.63;;;;;;;;;;5052124;28;20032;-45
2022/12/08 02:23:37;;;;;;;8.68;2.75;;;;;;;;;;5051958;28;20040;-45
2022/12/08 02:26:04;;;;;;;8.25;2.63;;;;;;;;;;5052101;28;20444;-44
2022/12/08 02:28:33;;;;;;;8.10;2.85;;;;;;;;;;5052027;28;20025;-44
2022/12/08 02:31:00;;;;;;;9.48;3.00;;;;;;;;;;5051933;28;20035;-47
2022/12/08 02:33:52;;;;;;;8.25;2.88;;;;;;;;;;5051858;28;20037;-44
2022/12/08 02:36:25;;;;;;;8.85;2.85;;;;;;;;;;5051812;28;20111;-45
2022/12/08 02:39:11;;;;;;;9.48;2.80;;;;;;;;;;5051937;28;20475;-45
2022/12/08 02:41:38;;;;;;;9.23;3.05;;;;;;;;;;5051916;28;20036;-47
2022/12/08 02:44:08;;;;;;;9.00;2.70;;;;;;;;;;5051700;28;20033;-45
2022/12/08 02:46:45;;;;;;;7.57;2.67;;;;;;;;;;5051788;28;20065;-45
2022/12/08 02:49:14;;;;;;;6.93;2.38;;;;;;;;;;5051870;28;20100;-44
2022/12/08 02:51:41;;;;;;;6.10;2.33;;;;;;;;;;5051581;28;20045;-44
2022/12/08 02:54:08;;;;;;;5.25;2.38;;;;;;;;;;5051668;28;20029;-44
2022/12/08 02:56:46;;;;;;;9.05;2.83;;;;;;;;;;5051770;28;20032;-45
2022/12/08 02:59:31;;;;;;;8.80;2.85;;;;;;;;;;5051725;28;20036;-44
2022/12/08 03:02:21;;;;;;;7.70;2.70;;;;;;;;;;5051606;28;20049;-44
2022/12/08 03:04:54;;;;;;;9.35;2.47;;;;;;;;;;5043907;28;20399;-44
2022/12/08 03:07:39;;;;;;;5.20;2.25;;;;;;;;;;5051670;28;20517;-45
2022/12/08 03:10:06;;;;;;;10.30;2.40;;;;;;;;;;5051584;28;20032;-44
2022/12/08 03:12:41;;;;;;;8.10;2.65;;;;;;;;;;5050834;28;20491;-47
2022/12/08 03:15:14;;;;;;;6.38;2.53;;;;;;;;;;5051399;28;20433;-48
2022/12/08 03:17:44;;;;;;;8.10;2.50;;;;;;;;;;5050158;28;20079;-45
2022/12/08 03:20:13;;;;;;;9.77;2.83;;;;;;;;;;5050720;28;20036;-45
2022/12/08 03:22:41;;;;;;;9.68;2.63;;;;;;;;;;5050596;28;20081;-45
2022/12/08 03:25:10;;;;;;;28.85;3.28;;;;;;;;;;5049920;28;20386;-47
2022/12/08 03:27:37;;;;;;;14.40;3.38;;;;;;;;;;5050930;28;20436;-45
2022/12/08 03:30:04;;;;;;;7.35;3.10;;;;;;;;;;5050210;28;20043;-50
2022/12/08 03:32:41;;;;;;;13.27;3.53;;;;;;;;;;5050514;28;20116;-46
2022/12/08 03:35:19;;;;;;;14.30;3.22;;;;;;;;;;5048949;28;20055;-47
2022/12/08 03:37:46;;;;;;;8.10;3.20;;;;;;;;;;5048701;28;20052;-45
2022/12/08 03:40:15;;;;;;;7.90;2.95;;;;;;;;;;5050597;28;20510;-48
2022/12/08 03:42:43;;;;;;;6.57;3.15;;;;;;;;;;5048221;28;20024;-47
2022/12/08 03:45:10;;;;;;;8.63;2.75;;;;;;;;;;5050520;28;20021;-47
2022/12/08 03:47:37;;;;;;;6.10;2.28;;;;;;;;;;5052830;28;20029;-49
2022/12/08 03:50:04;;;;;;;7.40;2.40;;;;;;;;;;5052657;28;20029;-47
2022/12/08 03:52:31;;;;;;;7.30;2.58;;;;;;;;;;5053589;28;20044;-51
2022/12/08 03:54:59;;;;;;;5.15;2.47;;;;;;;;;;5053946;28;20040;-48
2022/12/08 03:57:26;;;;;;;7.15;2.50;;;;;;;;;;5053868;28;20032;-48
2022/12/08 03:59:52;;;;;;;6.85;2.53;;;;;;;;;;5054038;28;20025;-47
2022/12/08 04:02:20;;;;;;;10.60;2.40;;;;;;;;;;5050890;28;20115;-52
2022/12/08 04:04:47;;;;;;;7.07;2.80;;;;;;;;;;5053886;28;20032;-48
2022/12/08 04:07:13;;;;;;;5.13;2.58;;;;;;;;;;5054146;28;20207;-50
2022/12/08 04:09:41;;;;;;;10.85;2.65;;;;;;;;;;5054151;28;20033;-54
2022/12/08 04:12:08;;;;;;;6.60;2.50;;;;;;;;;;5054175;28;20056;-49
2022/12/08 04:14:35;;;;;;;9.90;2.78;;;;;;;;;;5054137;28;20029;-51
2022/12/08 04:17:02;;;;;;;6.20;2.50;;;;;;;;;;5052418;28;20133;-52
2022/12/08 04:19:29;;;;;;;6.32;3.05;;;;;;;;;;5054122;28;20087;-52
2022/12/08 04:21:56;;;;;;;5.68;2.78;;;;;;;;;;5054085;28;20040;-47
2022/12/08 04:24:23;;;;;;;5.85;3.00;;;;;;;;;;5054025;28;20021;-47
2022/12/08 04:26:50;;;;;;;8.55;3.25;;;;;;;;;;5054019;28;20096;-46
2022/12/08 04:29:17;;;;;;;9.05;3.60;;;;;;;;;;5053733;28;20024;-53
2022/12/08 04:31:44;;;;;;;6.53;3.05;;;;;;;;;;5053695;28;20033;-45
2022/12/08 04:34:11;;;;;;;12.02;3.22;;;;;;;;;;5053947;28;20029;-47
2022/12/08 04:36:38;;;;;;;9.90;3.15;;;;;;;;;;5053752;28;20033;-47
2022/12/08 04:39:05;;;;;;;7.82;3.15;;;;;;;;;;5053755;28;20074;-48
2022/12/08 04:41:32;;;;;;;7.03;3.47;;;;;;;;;;5053810;28;20098;-46
2022/12/08 04:43:59;;;;;;;6.05;3.42;;;;;;;;;;5053417;28;20025;-50
2022/12/08 04:46:26;;;;;;;10.63;3.67;;;;;;;;;;5053542;28;20032;-46
2022/12/08 04:48:53;;;;;;;7.15;3.10;;;;;;;;;;5053650;28;20391;-46
2022/12/08 04:51:20;;;;;;;12.13;3.28;;;;;;;;;;5052990;28;20041;-46
2022/12/08 04:53:56;;;;;;;7.47;3.05;;;;;;;;;;5051645;28;20029;-53
2022/12/08 04:56:30;;;;;;;10.88;3.50;;;;;;;;;;5049355;28;20498;-54
2022/12/08 04:59:10;;;;;;;7.18;2.67;;;;;;;;;;5052354;28;20474;-53
2022/12/08 05:01:47;;;;;;;7.45;2.60;;;;;;;;;;5051022;28;20033;-56
2022/12/08 05:04:19;;;;;;;6.35;2.97;;;;;;;;;;5051122;28;20063;-51
2022/12/08 05:06:55;;;;;;;8.93;3.38;;;;;;;;;;5049315;28;20085;-53
2022/12/08 05:09:36;;;;;;;6.65;2.65;;;;;;;;;;5050716;28;20025;-49
2022/12/08 05:12:03;;;;;;;5.90;2.95;;;;;;;;;;5049962;28;20503;-51
2022/12/08 05:14:31;;;;;;;5.88;2.50;;;;;;;;;;5053067;28;20032;-49
2022/12/08 05:16:58;;;;;;;7.32;2.72;;;;;;;;;;5052607;28;20061;-52
2022/12/08 05:19:25;;;;;;;5.68;2.58;;;;;;;;;;5052920;28;20051;-47
2022/12/08 05:21:52;;;;;;;4.78;2.53;;;;;;;;;;5053027;28;20032;-47
2022/12/08 05:24:19;;;;;;;7.57;2.58;;;;;;;;;;5053075;28;20043;-47
2022/12/08 05:26:46;;;;;;;6.95;2.53;;;;;;;;;;5052912;28;20028;-47
2022/12/08 05:29:13;;;;;;;6.70;2.67;;;;;;;;;;5052957;28;20029;-52
2022/12/08 05:31:40;;;;;;;6.50;2.45;;;;;;;;;;5052672;28;20021;-48
2022/12/08 05:34:07;;;;;;;6.75;2.50;;;;;;;;;;5052860;28;20052;-50
2022/12/08 05:36:34;;;;;;;8.90;2.80;;;;;;;;;;5052773;28;20024;-47
2022/12/08 05:39:01;;;;;;;4.57;2.67;;;;;;;;;;5052782;28;20028;-47
2022/12/08 05:41:28;;;;;;;5.63;2.67;;;;;;;;;;5052646;28;20033;-51
2022/12/08 05:43:55;;;;;;;6.88;2.58;;;;;;;;;;5052522;28;20071;-53
2022/12/08 05:46:22;;;;;;;6.75;3.00;;;;;;;;;;5052651;28;20067;-50
2022/12/08 05:48:49;;;;;;;6.88;2.60;;;;;;;;;;5052589;28;20060;-49
2022/12/08 05:51:23;;;;;;;7.22;2.70;;;;;;;;;;5052580;28;20021;-52
2022/12/08 05:53:51;;;;;;;7.05;2.58;;;;;;;;;;5052392;28;20037;-48
2022/12/08 05:56:19;;;;;;;9.32;3.00;;;;;;;;;;5052526;28;20057;-54
2022/12/08 05:58:46;;;;;;;9.77;2.88;;;;;;;;;;5052392;28;20029;-50
2022/12/08 06:01:26;;;;;;;6.32;2.50;;;;;;;;;;5050286;28;20066;-49
2022/12/08 06:03:53;;;;;;;8.32;2.63;;;;;;;;;;5052269;28;20025;-50
2022/12/08 06:06:21;;;;;;;6.80;2.70;;;;;;;;;;5050951;28;20071;-49
2022/12/08 06:08:48;;;;;;;8.27;2.90;;;;;;;;;;5051740;28;20025;-50
2022/12/08 06:11:19;;;;;;;6.97;2.63;;;;;;;;;;5052050;28;20032;-51
2022/12/08 06:13:46;;;;;;;7.03;2.65;;;;;;;;;;5051771;28;20031;-48
2022/12/08 06:16:13;;;;;;;8.82;2.97;;;;;;;;;;5052080;28;20029;-51
2022/12/08 06:18:40;;;;;;;6.28;2.53;;;;;;;;;;5051921;28;20576;-52
2022/12/08 06:21:08;;;;;;;6.72;2.28;;;;;;;;;;5051842;28;20036;-48
2022/12/08 06:23:35;;;;;;;6.68;2.33;;;;;;;;;;5052005;28;20032;-49
2022/12/08 06:26:03;;;;;;;7.53;2.20;;;;;;;;;;5052031;28;20025;-47
2022/12/08 06:28:30;;;;;;;7.25;2.65;;;;;;;;;;5051961;28;20083;-47
2022/12/08 06:30:58;;;;;;;3.53;2.55;;;;;;;;;;5051990;28;20028;-47
2022/12/08 06:33:25;;;;;;;4.93;2.40;;;;;;;;;;5051870;28;20044;-47
2022/12/08 06:35:53;;;;;;;5.85;2.28;;;;;;;;;;5051876;28;20506;-46
2022/12/08 06:38:19;;;;;;;5.60;2.63;;;;;;;;;;5051884;28;20018;-47
2022/12/08 06:40:53;;;;;;;5.07;2.67;;;;;;;;;;5051863;28;20064;-49
2022/12/08 06:43:20;;;;;;;5.82;2.90;;;;;;;;;;5051985;28;20040;-47
2022/12/08 06:45:47;;;;;;;6.68;3.20;;;;;;;;;;5051803;28;20104;-47
2022/12/08 06:48:14;;;;;;;8.07;4.07;;;;;;;;;;5051842;28;20056;-46
2022/12/08 06:50:41;;;;;;;7.47;4.15;;;;;;;;;;5051816;28;20040;-47
2022/12/08 06:53:08;;;;;;;7.13;3.88;;;;;;;;;;5051762;28;20036;-47
2022/12/08 06:55:35;;;;;;;8.50;3.60;;;;;;;;;;5051771;28;20029;-48
2022/12/08 06:58:02;;;;;;;7.03;3.33;;;;;;;;;;5051701;28;20029;-46
2022/12/08 07:00:29;;;;;;;8.30;3.42;;;;;;;;;;5051672;28;20021;-47
2022/12/08 07:02:56;;;;;;;6.32;3.58;;;;;;;;;;5051616;28;20036;-49
2022/12/08 07:05:23;;;;;;;9.50;4.18;;;;;;;;;;5051596;28;20027;-48
2022/12/08 07:07:50;;;;;;;8.27;3.63;;;;;;;;;;5170564;22;20061;-50
2022/12/08 07:10:17;;;;;;;5.32;3.42;;;;;;;;;;5032465;28;20033;-50
2022/12/08 07:12:45;;;;;;;8.18;3.75;;;;;;;;;;5031672;28;20482;-49
2022/12/08 07:15:12;;;;;;;8.70;3.78;;;;;;;;;;5031740;28;20026;-52
2022/12/08 07:17:39;;;;;;;8.07;3.38;;;;;;;;;;5030111;28;20018;-54
2022/12/08 07:20:06;;;;;;;7.10;3.78;;;;;;;;;;5031843;28;20018;-51
2022/12/08 07:22:33;;;;;;;7.53;3.55;;;;;;;;;;5035470;28;20026;-47
2022/12/08 07:25:00;;;;;;;7.10;3.55;;;;;;;;;;5035359;28;20021;-49
2022/12/08 07:27:27;;;;;;;8.68;3.83;;;;;;;;;;5035013;28;20036;-46
2022/12/08 07:29:54;;;;;;;7.30;3.85;;;;;;;;;;5035133;28;20088;-48
2022/12/08 07:32:21;;;;;;;7.45;3.58;;;;;;;;;;5035256;28;20470;-50
2022/12/08 07:34:48;;;;;;;8.65;3.40;;;;;;;;;;5035350;28;20064;-49
2022/12/08 07:37:15;;;;;;;5.78;3.08;;;;;;;;;;5035375;28;20498;-49
2022/12/08 07:39:41;;;;;;;7.85;3.70;;;;;;;;;;5035346;28;20018;-49
2022/12/08 07:42:08;;;;;;;6.07;2.90;;;;;;;;;;5035259;28;20028;-48
2022/12/08 07:44:35;;;;;;;5.63;3.10;;;;;;;;;;5035277;28;20024;-47
2022/12/08 07:47:02;;;;;;;7.20;2.83;;;;;;;;;;5035180;28;20022;-48
2022/12/08 07:49:29;;;;;;;8.68;3.55;;;;;;;;;;5035288;28;20033;-47
2022/12/08 07:51:56;;;;;;;8.07;3.53;;;;;;;;;;5035052;28;20517;-49
2022/12/08 07:54:23;;;;;;;10.65;3.50;;;;;;;;;;5035120;28;20096;-51
2022/12/08 07:56:50;;;;;;;9.30;3.97;;;;;;;;;;5034893;28;20025;-47
2022/12/08 07:59:17;;;;;;;8.05;3.63;;;;;;;;;;5035065;28;20021;-47
2022/12/08 08:01:45;;;;;;;7.05;3.47;;;;;;;;;;5035062;28;20045;-48
2022/12/08 08:04:12;;;;;;;7.38;3.28;;;;;;;;;;5034770;28;20037;-50
2022/12/08 08:06:39;;;;;;;7.03;3.88;;;;;;;;;;5034813;28;20032;-47
2022/12/08 08:09:06;;;;;;;4.28;3.17;;;;;;;;;;5034706;28;20052;-48
2022/12/08 08:11:32;;;;;;;13.32;3.50;;;;;;;;;;5034774;28;20029;-47
2022/12/08 08:13:59;;;;;;;8.23;3.25;;;;;;;;;;5034683;28;20092;-46
2022/12/08 08:16:26;;;;;;;5.72;3.33;;;;;;;;;;5034643;28;20408;-49
2022/12/08 08:18:54;;;;;;;10.48;2.90;;;;;;;;;;5034674;28;20026;-49
2022/12/08 08:21:21;;;;;;;7.03;2.75;;;;;;;;;;5033309;28;20029;-49
2022/12/08 08:23:48;;;;;;;7.88;3.22;;;;;;;;;;5034578;28;20497;-48
2022/12/08 08:26:15;;;;;;;9.18;2.97;;;;;;;;;;5034567;28;20025;-46
2022/12/08 08:28:44;;;;;;;13.57;3.45;;;;;;;;;;5034384;28;20021;-48
2022/12/08 08:31:11;;;;;;;7.60;2.83;;;;;;;;;;5034456;28;20116;-48
2022/12/08 08:33:38;;;;;;;8.45;2.55;;;;;;;;;;5033632;28;20028;-46
2022/12/08 08:36:09;;;;;;;10.82;2.80;;;;;;;;;;5034412;28;20151;-46
2022/12/08 08:38:41;;;;;;;12.50;2.70;;;;;;;;;;5034302;28;20030;-46
2022/12/08 08:41:08;;;;;;;;;;;;;;;;;;5034454;28;20033;-51
2022/12/08 08:43:35;;;;;;;8.48;2.47;;;;;;;;;;5034336;28;20030;-45
2022/12/08 08:46:02;;;;;;;13.10;2.50;;;;;;;;;;5034196;28;20072;-48
2022/12/08 08:48:30;;;;;;;11.68;2.00;;;;;;;;;;5032836;28;20032;-47
2022/12/08 08:50:58;;;;;;;11.50;2.13;;;;;;;;;;5034100;28;20021;-49
2022/12/08 08:53:25;;;;;;;11.07;1.98;;;;;;;;;;5034087;28;20030;-52
2022/12/08 08:55:52;;;;;;;11.05;2.17;;;;;;;;;;5033891;28;20140;-48
2022/12/08 08:58:18;;;;;;;8.18;1.92;;;;;;;;;;5033908;28;20021;-53
2022/12/08 09:00:45;;;;;;;6.47;1.95;;;;;;;;;;5033989;28;20033;-49
2022/12/08 09:03:12;;;;;;;10.98;1.98;;;;;;;;;;5033869;28;20025;-48
2022/12/08 09:05:40;;;;;;;8.40;2.10;;;;;;;;;;5033842;28;20509;-49
2022/12/08 09:08:07;;;;;;;9.00;2.65;;;;;;;;;;5033555;28;20495;-50
2022/12/08 09:10:34;;;;;;;16.20;3.42;;;;;;;;;;5033735;28;20018;-48
2022/12/08 09:13:01;;;;;;;11.80;2.53;;;;;;;;;;5033705;28;20033;-48
2022/12/08 09:15:28;;;;;;;19.13;2.03;;;;;;;;;;5033633;28;20017;-51
2022/12/08 09:17:55;;;;;;;12.82;2.25;;;;;;;;;;5033379;28;20410;-50
2022/12/08 09:20:22;;;;;;;11.05;2.10;;;;;;;;;;5033559;28;20048;-48
2022/12/08 09:22:49;;;;;;;13.90;1.95;;;;;;;;;;5033479;28;20040;-47
2022/12/08 09:25:16;;;;;;;12.93;1.90;;;;;;;;;;5033640;28;20037;-49
2022/12/08 09:27:42;;;;;;;15.90;1.60;;;;;;;;;;5033316;28;20382;-46
2022/12/08 09:30:10;;;;;;;12.23;1.75;;;;;;;;;;5033269;28;20548;-49
2022/12/08 09:32:37;;;;;;;9.45;1.73;;;;;;;;;;5033277;28;20032;-47
2022/12/08 09:35:04;;;;;;;16.33;1.70;;;;;;;;;;5033205;28;20021;-49
2022/12/08 09:37:33;;;;;;;16.92;2.03;;;;;;;;;;5033026;28;20067;-52
2022/12/08 09:40:00;;;;;;;10.90;1.58;;;;;;;;;;5031467;28;20428;-46
2022/12/08 09:42:36;;;;;;;9.30;1.50;;;;;;;;;;5032949;28;20026;-50
2022/12/08 09:45:09;;;;;;;11.18;1.48;;;;;;;;;;5032851;28;20025;-51
2022/12/08 09:47:35;;;;;;;;;;;;;;;;;;5033379;28;20017;-49
2022/12/08 09:50:28;;;;;;;10.82;1.55;;;;;;;;;;5032402;28;19915;-49
2022/12/08 09:53:14;;;;;;;9.73;1.67;;;;;;;;;;5028660;28;20069;-51
2022/12/08 09:55:44;;;;;;;11.23;1.70;;;;;;;;;;5030500;28;20505;-56
2022/12/08 09:58:29;;;;;;;9.65;1.40;;;;;;;;;;5031872;28;20498;-51
2022/12/08 10:00:56;;;;;;;14.95;1.77;;;;;;;;;;5031746;28;20764;-52
2022/12/08 10:03:26;;;;;;;11.52;1.88;;;;;;;;;;5032711;28;20383;-53
2022/12/08 10:06:16;;;;;;;14.43;2.40;;;;;;;;;;5032685;28;20490;-48
2022/12/08 10:09:05;;;;;;;13.43;1.63;;;;;;;;;;5032409;28;20049;-47
2022/12/08 10:11:37;;;;;;;12.57;1.58;;;;;;;;;;5026097;28;20144;-47
2022/12/08 10:14:09;;;;;;;7.63;1.45;;;;;;;;;;5032341;28;20487;-52
2022/12/08 10:16:41;;;;;;;13.30;1.77;;;;;;;;;;5031806;28;20045;-54
2022/12/08 10:19:14;;;;;;;10.05;1.85;;;;;;;;;;5031865;28;20033;-46
2022/12/08 10:21:41;;;;;;;11.80;1.45;;;;;;;;;;5032093;28;20025;-46
2022/12/08 10:24:28;;;;;;;12.30;1.75;;;;;;;;;;5032120;28;20437;-48
2022/12/08 10:26:55;;;;;;;15.90;1.92;;;;;;;;;;5031688;28;20105;-46
2022/12/08 10:29:23;;;;;;;13.38;1.40;;;;;;;;;;5031912;28;20434;-49
2022/12/08 10:31:50;;;;;;;13.68;1.50;;;;;;;;;;5031997;28;20498;-51
2022/12/08 10:34:24;;;;;;;14.30;1.45;;;;;;;;;;5031991;28;20098;-53
2022/12/08 10:36:55;;;;;;;10.07;1.30;;;;;;;;;;5031880;28;20041;-47
2022/12/08 10:39:39;;;;;;;9.43;1.17;;;;;;;;;;5030595;28;20108;-48
2022/12/08 10:42:06;;;;;;;12.32;1.85;;;;;;;;;;5031970;28;20535;-49
2022/12/08 10:44:37;;;;;;;12.00;1.33;;;;;;;;;;5031801;28;20037;-50
2022/12/08 10:47:11;;;;;;;11.63;1.80;;;;;;;;;;5031736;28;20026;-49
2022/12/08 10:49:38;;;;;;;16.27;1.77;;;;;;;;;;5031834;28;20037;-52
2022/12/08 10:52:09;;;;;;;14.55;1.35;;;;;;;;;;5031874;28;20022;-50
2022/12/08 10:54:37;;;;;;;16.77;1.67;;;;;;;;;;5031765;28;20025;-52
2022/12/08 10:57:04;;;;;;;10.45;1.60;;;;;;;;;;5035303;28;20540;-50
2022/12/08 10:59:33;;;;;;;7.95;1.58;;;;;;;;;;5035837;28;20018;-48
2022/12/08 11:02:00;;;;;;;11.85;1.42;;;;;;;;;;5035701;28;20513;-47
2022/12/08 11:04:35;;;;;;;14.57;1.48;;;;;;;;;;5035683;28;20014;-49
2022/12/08 11:07:02;;;;;;;10.43;1.45;;;;;;;;;;5035228;28;20021;-47
2022/12/08 11:09:49;;;;;;;4.60;1.13;;;;;;;;;;5035749;28;20046;-52
2022/12/08 11:12:17;;;;;;;8.57;1.65;;;;;;;;;;5034189;28;20022;-48
2022/12/08 11:14:44;;;;;;;6.97;1.40;;;;;;;;;;5035586;28;20510;-48
2022/12/08 11:17:23;;;;;;;7.95;1.33;;;;;;;;;;5035512;28;20025;-52
2022/12/08 11:20:01;;;;;;;7.65;1.40;;;;;;;;;;5035439;28;20502;-48
2022/12/08 11:22:32;;;;;;;9.07;1.27;;;;;;;;;;5035343;28;20037;-53
2022/12/08 11:25:02;;;;;;;7.63;1.10;;;;;;;;;;5035277;28;20475;-52
2022/12/08 11:27:29;;;;;;;7.35;1.13;;;;;;;;;;5035251;28;20022;-50
2022/12/08 11:29:56;;;;;;;6.05;0.90;;;;;;;;;;5035181;28;20414;-52
2022/12/08 11:32:23;;;;;;;9.23;1.00;;;;;;;;;;5035164;28;20426;-52
2022/12/08 11:34:52;;;;;;;8.48;1.27;;;;;;;;;;5035230;28;20026;-47
2022/12/08 11:37:23;;;;;;;12.23;0.95;;;;;;;;;;5034914;28;20036;-51
2022/12/08 11:39:53;;;;;;;7.10;0.88;;;;;;;;;;5035002;28;20482;-53
2022/12/08 11:42:22;;;;;;;20.98;1.08;;;;;;;;;;5034902;28;20376;-51
2022/12/08 11:44:58;;;;;;;6.47;0.77;;;;;;;;;;5034955;28;20074;-51
2022/12/08 11:47:28;;;;;;;6.78;0.70;;;;;;;;;;5034827;28;20026;-50
2022/12/08 11:50:03;;;;;;;4.75;0.75;;;;;;;;;;5034872;28;20022;-48
2022/12/08 11:52:40;;;;;;;3.88;0.70;;;;;;;;;;5034702;28;20064;-51
2022/12/08 11:55:20;;;;;;;7.70;0.80;;;;;;;;;;5034824;28;20040;-50
2022/12/08 11:57:47;;;;;;;7.70;0.65;;;;;;;;;;5034703;28;20028;-48
2022/12/08 12:00:16;;;;;;;6.85;0.80;;;;;;;;;;5034062;28;20032;-51
2022/12/08 12:02:54;;;;;;;4.35;0.88;;;;;;;;;;5034531;28;20106;-47
2022/12/08 12:05:30;;;;;;;7.22;1.00;;;;;;;;;;5034641;28;20075;-49
2022/12/08 12:08:16;;;;;;;8.80;0.70;;;;;;;;;;5032583;28;20066;-48
2022/12/08 12:11:09;;;;;;;7.20;0.82;;;;;;;;;;5034192;28;20022;-52
2022/12/08 12:13:56;;;;;;;8.18;0.65;;;;;;;;;;5033401;28;20041;-50
2022/12/08 12:16:38;;;;;;;3.25;0.63;;;;;;;;;;5034320;28;20517;-53
2022/12/08 12:19:10;;;;;;;13.45;0.95;;;;;;;;;;5034053;28;20351;-51
2022/12/08 12:21:40;;;;;;;5.95;0.70;;;;;;;;;;5033854;28;20014;-46
2022/12/08 12:24:16;;;;;;;5.53;0.88;;;;;;;;;;5034116;28;20080;-48
2022/12/08 12:26:54;;;;;;;4.63;0.55;;;;;;;;;;5034082;28;20471;-49
2022/12/08 12:29:22;;;;;;;8.98;1.50;;;;;;;;;;5034087;28;20044;-53
2022/12/08 12:32:00;;;;;;;9.55;0.90;;;;;;;;;;5033974;28;20391;-52
2022/12/08 12:34:29;;;;;;;4.65;0.52;;;;;;;;;;5034022;28;20087;-54
2022/12/08 12:37:16;;;;;;;2.63;0.80;;;;;;;;;;5033927;28;20022;-53
2022/12/08 12:39:49;;;;;;;6.45;0.88;;;;;;;;;;5033970;28;20054;-50
2022/12/08 12:42:51;;;;;;;7.03;0.68;;;;;;;;;;5033983;28;20514;-55
2022/12/08 12:45:21;;;;;;;2.67;0.50;;;;;;;;;;5011915;28;20029;-50
2022/12/08 12:47:52;;;;;;;5.50;0.60;;;;;;;;;;5029778;28;20064;-48
2022/12/08 12:50:37;;;;;;;4.37;0.60;;;;;;;;;;5033744;28;20092;-51
2022/12/08 12:53:06;;;;;;;7.03;0.50;;;;;;;;;;5033998;28;20338;-55
2022/12/08 12:55:53;;;;;;;6.68;0.80;;;;;;;;;;5033791;28;20088;-55
2022/12/08 12:58:35;;;;;;;5.63;0.60;;;;;;;;;;5033491;28;20418;-53
2022/12/08 13:01:13;;;;;;;5.43;0.83;;;;;;;;;;5033678;28;20059;-55
2022/12/08 13:03:42;;;;;;;3.83;0.70;;;;;;;;;;5032213;28;20021;-49
2022/12/08 13:06:12;;;;;;;4.18;0.52;;;;;;;;;;5033460;28;20029;-53
2022/12/08 13:08:50;;;;;;;4.20;0.60;;;;;;;;;;5033240;28;20053;-50
2022/12/08 13:11:18;;;;;;;7.72;0.47;;;;;;;;;;5033311;28;20028;-47
2022/12/08 13:13:59;;;;;;;6.50;0.60;;;;;;;;;;5033446;28;20025;-45
2022/12/08 13:16:26;;;;;;;4.53;0.60;;;;;;;;;;5033145;28;20105;-47
2022/12/08 13:18:58;;;;;;;2.00;0.68;;;;;;;;;;5032931;28;20029;-47
2022/12/08 13:21:31;;;;;;;8.18;0.73;;;;;;;;;;5033213;28;20040;-45
2022/12/08 13:24:13;;;;;;;5.72;0.80;;;;;;;;;;5033178;28;20104;-45
2022/12/08 13:26:47;;;;;;;8.75;0.68;;;;;;;;;;5033047;28;20032;-45
2022/12/08 13:29:16;;;;;;;8.20;0.60;;;;;;;;;;5033044;28;20407;-45
2022/12/08 13:31:44;;;;;;;7.20;0.70;;;;;;;;;;5032963;28;20048;-46
2022/12/08 13:34:29;;;;;;;7.82;0.80;;;;;;;;;;5032883;28;20040;-45
2022/12/08 13:37:02;;;;;;;4.32;0.60;;;;;;;;;;5031529;28;20037;-46
2022/12/08 13:39:33;;;;;;;3.50;0.75;;;;;;;;;;5032794;28;20107;-45
2022/12/08 13:42:07;;;;;;;6.63;0.88;;;;;;;;;;5031422;28;20033;-44
2022/12/08 13:44:54;;;;;;;5.95;0.80;;;;;;;;;;5032825;28;20487;-45
2022/12/08 13:47:24;;;;;;;2.63;0.80;;;;;;;;;;5028864;28;20041;-43
2022/12/08 13:50:01;;;;;;;3.85;0.55;;;;;;;;;;5032690;28;20048;-51
2022/12/08 13:52:37;;;;;;;1.75;0.40;;;;;;;;;;5032550;28;20052;-45
2022/12/08 13:55:04;;;;;;;3.97;0.80;;;;;;;;;;5031141;28;20511;-47
2022/12/08 13:57:35;;;;;;;2.80;0.60;;;;;;;;;;5032399;28;20115;-44
2022/12/08 14:00:13;;;;;;;5.27;0.80;;;;;;;;;;5032506;28;20559;-48
2022/12/08 14:02:46;;;;;;;4.10;0.68;;;;;;;;;;5032420;28;20060;-45
2022/12/08 14:05:12;;;;;;;;;;;;;;;;;;5031619;28;20040;-48
2022/12/08 14:07:40;;;;;;;3.75;0.60;;;;;;;;;;5032085;28;20039;-46
2022/12/08 14:10:14;;;;;;;4.43;0.63;;;;;;;;;;5032314;28;20495;-47
2022/12/08 14:12:43;;;;;;;4.82;0.60;;;;;;;;;;5032237;28;20037;-46
2022/12/08 14:15:12;;;;;;;4.15;0.60;;;;;;;;;;5032224;28;20034;-45
2022/12/08 14:17:40;;;;;;;5.40;0.70;;;;;;;;;;5032253;28;20088;-45
2022/12/08 14:20:12;;;;;;;11.35;0.85;;;;;;;;;;5032283;28;20018;-45
2022/12/08 14:22:40;;;;;;;11.10;0.98;;;;;;;;;;5032379;28;20083;-46
2022/12/08 14:25:11;;;;;;;10.85;0.90;;;;;;;;;;5032136;28;20475;-46
2022/12/08 14:27:38;;;;;;;9.52;1.00;;;;;;;;;;5032075;28;20043;-49
2022/12/08 14:30:25;;;;;;;11.30;1.17;;;;;;;;;;5030910;28;20474;-46
2022/12/08 14:32:54;;;;;;;5.18;0.93;;;;;;;;;;5031785;28;20028;-46
2022/12/08 14:35:24;;;;;;;8.07;1.20;;;;;;;;;;5032015;28;20022;-46
2022/12/08 14:37:53;;;;;;;14.55;1.40;;;;;;;;;;5032034;28;20061;-48
2022/12/08 14:40:22;;;;;;;20.67;2.22;;;;;;;;;;5032062;28;20053;-52
2022/12/08 14:42:53;;;;;;;21.95;1.88;;;;;;;;;;5031480;28;20056;-48
2022/12/08 14:45:20;;;;;;;18.55;1.90;;;;;;;;;;5031883;28;20064;-47
2022/12/08 14:47:47;;;;;;;21.13;2.20;;;;;;;;;;5031964;28;20422;-45
2022/12/08 14:50:32;;;;;;;17.70;2.17;;;;;;;;;;5031960;28;20041;-48
2022/12/08 14:52:59;;;;;;;11.13;1.95;;;;;;;;;;5031824;28;20041;-47
2022/12/08 14:55:27;;;;;;;30.88;2.72;;;;;;;;;;5030526;28;20030;-52
2022/12/08 14:57:54;;;;;;;17.20;1.98;;;;;;;;;;5027905;28;20033;-50
2022/12/08 15:00:22;;;;;;;14.18;1.80;;;;;;;;;;5030494;28;20040;-54
2022/12/08 15:02:49;;;;;;;18.15;2.17;;;;;;;;;;5030404;28;20467;-49
2022/12/08 15:05:17;;;;;;;21.67;2.60;;;;;;;;;;5030496;28;20033;-54